<?xml version="1.0" encoding="UTF-8" standalone="no" ?>
<gpx xmlns="http://www.topografix.com/GPX/1/1" xmlns:xsi="http://www.w3.org/2001/XMLSchema-instance" xsi:schemaLocation="http://www.topografix.com/GPX/1/1 http://www.topografix.com/GPX/1/1/gpx.xsd" version="1.1" creator="VisuGPX - https://www.visugpx.com">
  <metadata>
    <name>Tour de France 2019</name>
    <desc><![CDATA[4272km en 2 mois en tandem avec notre petit chien dans le panier avant]]></desc>
  </metadata>
  <trk>
    <name><![CDATA[Tracé 20191111-082508]]></name>
    <trkseg>
      <trkpt lat="48.00237" lon="-1.77523">
        <ele>24.576</ele>
        <time>2019-11-11T07:35:56Z</time>
      </trkpt>
      <trkpt lat="48.00304" lon="-1.77555">
        <ele>23.747</ele>
        <time>2019-11-11T07:36:26Z</time>
      </trkpt>
      <trkpt lat="48.00321" lon="-1.77736">
        <ele>19.571</ele>
        <time>2019-11-11T07:36:59Z</time>
      </trkpt>
      <trkpt lat="48.00345" lon="-1.77879">
        <ele>19.55</ele>
        <time>2019-11-11T07:37:29Z</time>
      </trkpt>
      <trkpt lat="48.00405" lon="-1.77989">
        <ele>16.524</ele>
        <time>2019-11-11T07:37:59Z</time>
      </trkpt>
      <trkpt lat="48.0038" lon="-1.78152">
        <ele>20.536</ele>
        <time>2019-11-11T07:38:32Z</time>
      </trkpt>
      <trkpt lat="48.0035" lon="-1.78324">
        <ele>23.058</ele>
        <time>2019-11-11T07:39:02Z</time>
      </trkpt>
      <trkpt lat="48.00411" lon="-1.78463">
        <ele>21.475</ele>
        <time>2019-11-11T07:39:32Z</time>
      </trkpt>
      <trkpt lat="48.00535" lon="-1.78501">
        <ele>23.105</ele>
        <time>2019-11-11T07:40:02Z</time>
      </trkpt>
      <trkpt lat="48.00675" lon="-1.7851">
        <ele>17.447</ele>
        <time>2019-11-11T07:40:35Z</time>
      </trkpt>
      <trkpt lat="48.00802" lon="-1.78434">
        <ele>15.152</ele>
        <time>2019-11-11T07:41:05Z</time>
      </trkpt>
      <trkpt lat="48.00921" lon="-1.78355">
        <ele>19.593</ele>
        <time>2019-11-11T07:41:35Z</time>
      </trkpt>
      <trkpt lat="48.01048" lon="-1.78305">
        <ele>23.416</ele>
        <time>2019-11-11T07:42:08Z</time>
      </trkpt>
      <trkpt lat="48.01172" lon="-1.78274">
        <ele>21.671</ele>
        <time>2019-11-11T07:42:38Z</time>
      </trkpt>
      <trkpt lat="48.01303" lon="-1.78193">
        <ele>21.299</ele>
        <time>2019-11-11T07:43:08Z</time>
      </trkpt>
      <trkpt lat="48.01449" lon="-1.782">
        <ele>18.623</ele>
        <time>2019-11-11T07:43:41Z</time>
      </trkpt>
      <trkpt lat="48.01587" lon="-1.78195">
        <ele>15.391</ele>
        <time>2019-11-11T07:44:11Z</time>
      </trkpt>
      <trkpt lat="48.01684" lon="-1.78071">
        <ele>19.516</ele>
        <time>2019-11-11T07:44:41Z</time>
      </trkpt>
      <trkpt lat="48.01769" lon="-1.7792">
        <ele>19.875</ele>
        <time>2019-11-11T07:45:11Z</time>
      </trkpt>
      <trkpt lat="48.01898" lon="-1.77787">
        <ele>21.035</ele>
        <time>2019-11-11T07:45:44Z</time>
      </trkpt>
      <trkpt lat="48.02007" lon="-1.77669">
        <ele>20.826</ele>
        <time>2019-11-11T07:46:14Z</time>
      </trkpt>
      <trkpt lat="48.02105" lon="-1.77537">
        <ele>22.819</ele>
        <time>2019-11-11T07:46:44Z</time>
      </trkpt>
      <trkpt lat="48.02235" lon="-1.77463">
        <ele>21.915</ele>
        <time>2019-11-11T07:47:17Z</time>
      </trkpt>
      <trkpt lat="48.0224" lon="-1.77461">
        <ele>22.691</ele>
        <time>2019-11-11T07:48:23Z</time>
      </trkpt>
      <trkpt lat="48.02177" lon="-1.77476">
        <ele>21.185</ele>
        <time>2019-11-11T07:48:53Z</time>
      </trkpt>
      <trkpt lat="48.02223" lon="-1.77371">
        <ele>27.266</ele>
        <time>2019-11-11T07:49:26Z</time>
      </trkpt>
      <trkpt lat="48.02238" lon="-1.7734">
        <ele>24.648</ele>
        <time>2019-11-11T07:58:26Z</time>
      </trkpt>
      <trkpt lat="48.02328" lon="-1.77323">
        <ele>23.833</ele>
        <time>2019-11-11T07:59:02Z</time>
      </trkpt>
      <trkpt lat="48.02443" lon="-1.77242">
        <ele>17.684</ele>
        <time>2019-11-11T07:59:32Z</time>
      </trkpt>
      <trkpt lat="48.0252" lon="-1.77096">
        <ele>12.64</ele>
        <time>2019-11-11T08:00:05.001Z</time>
      </trkpt>
      <trkpt lat="48.02485" lon="-1.76947">
        <ele>17.246</ele>
        <time>2019-11-11T08:00:35Z</time>
      </trkpt>
      <trkpt lat="48.02517" lon="-1.76861">
        <ele>28.897</ele>
        <time>2019-11-11T08:01:05Z</time>
      </trkpt>
      <trkpt lat="48.02586" lon="-1.76811">
        <ele>35.86</ele>
        <time>2019-11-11T08:01:35Z</time>
      </trkpt>
      <trkpt lat="48.02629" lon="-1.76725">
        <ele>33.062</ele>
        <time>2019-11-11T08:02:08Z</time>
      </trkpt>
      <trkpt lat="48.02604" lon="-1.76572">
        <ele>37.062</ele>
        <time>2019-11-11T08:02:38Z</time>
      </trkpt>
      <trkpt lat="48.02673" lon="-1.76446">
        <ele>38.065</ele>
        <time>2019-11-11T08:03:08Z</time>
      </trkpt>
      <trkpt lat="48.02817" lon="-1.76274">
        <ele>36.992</ele>
        <time>2019-11-11T08:03:41Z</time>
      </trkpt>
      <trkpt lat="48.0293" lon="-1.76159">
        <ele>38.025</ele>
        <time>2019-11-11T08:04:11Z</time>
      </trkpt>
      <trkpt lat="48.03017" lon="-1.76082">
        <ele>40.602</ele>
        <time>2019-11-11T08:04:41Z</time>
      </trkpt>
      <trkpt lat="48.03105" lon="-1.7598">
        <ele>37.476</ele>
        <time>2019-11-11T08:05:14Z</time>
      </trkpt>
      <trkpt lat="48.03148" lon="-1.75942">
        <ele>33.45</ele>
        <time>2019-11-11T08:05:44Z</time>
      </trkpt>
      <trkpt lat="48.03325" lon="-1.75896">
        <ele>30.055</ele>
        <time>2019-11-11T08:06:14Z</time>
      </trkpt>
      <trkpt lat="48.03497" lon="-1.75816">
        <ele>27.035</ele>
        <time>2019-11-11T08:06:44Z</time>
      </trkpt>
      <trkpt lat="48.03571" lon="-1.75738">
        <ele>29.331</ele>
        <time>2019-11-11T08:07:17Z</time>
      </trkpt>
      <trkpt lat="48.03732" lon="-1.75674">
        <ele>25.837</ele>
        <time>2019-11-11T08:07:47Z</time>
      </trkpt>
      <trkpt lat="48.0386" lon="-1.75595">
        <ele>30.697</ele>
        <time>2019-11-11T08:08:17Z</time>
      </trkpt>
      <trkpt lat="48.03999" lon="-1.75529">
        <ele>34.025</ele>
        <time>2019-11-11T08:08:50Z</time>
      </trkpt>
      <trkpt lat="48.04127" lon="-1.75458">
        <ele>33.189</ele>
        <time>2019-11-11T08:09:20Z</time>
      </trkpt>
      <trkpt lat="48.04223" lon="-1.75367">
        <ele>34.174</ele>
        <time>2019-11-11T08:09:50Z</time>
      </trkpt>
      <trkpt lat="48.04317" lon="-1.75359">
        <ele>36.745</ele>
        <time>2019-11-11T08:10:20Z</time>
      </trkpt>
      <trkpt lat="48.04443" lon="-1.7544">
        <ele>39.184</ele>
        <time>2019-11-11T08:10:53Z</time>
      </trkpt>
      <trkpt lat="48.04588" lon="-1.75518">
        <ele>35.042</ele>
        <time>2019-11-11T08:11:23Z</time>
      </trkpt>
      <trkpt lat="48.04792" lon="-1.75514">
        <ele>32.268</ele>
        <time>2019-11-11T08:11:53Z</time>
      </trkpt>
      <trkpt lat="48.04995" lon="-1.75532">
        <ele>23.82</ele>
        <time>2019-11-11T08:12:26Z</time>
      </trkpt>
      <trkpt lat="48.05172" lon="-1.755">
        <ele>27.229</ele>
        <time>2019-11-11T08:12:56Z</time>
      </trkpt>
      <trkpt lat="48.05355" lon="-1.75498">
        <ele>27.373</ele>
        <time>2019-11-11T08:13:26Z</time>
      </trkpt>
      <trkpt lat="48.05493" lon="-1.75432">
        <ele>28.018</ele>
        <time>2019-11-11T08:13:56Z</time>
      </trkpt>
      <trkpt lat="48.05652" lon="-1.75449">
        <ele>20.334</ele>
        <time>2019-11-11T08:14:29Z</time>
      </trkpt>
      <trkpt lat="48.05795" lon="-1.75444">
        <ele>23.356</ele>
        <time>2019-11-11T08:14:59Z</time>
      </trkpt>
      <trkpt lat="48.05928" lon="-1.75545">
        <ele>25.375</ele>
        <time>2019-11-11T08:15:29Z</time>
      </trkpt>
      <trkpt lat="48.06104" lon="-1.75557">
        <ele>25.292</ele>
        <time>2019-11-11T08:16:02Z</time>
      </trkpt>
      <trkpt lat="48.06221" lon="-1.75504">
        <ele>30.656</ele>
        <time>2019-11-11T08:16:32Z</time>
      </trkpt>
      <trkpt lat="48.06243" lon="-1.75439">
        <ele>29.722</ele>
        <time>2019-11-11T08:17:02Z</time>
      </trkpt>
      <trkpt lat="48.06191" lon="-1.75323">
        <ele>27.346</ele>
        <time>2019-11-11T08:17:35Z</time>
      </trkpt>
      <trkpt lat="48.06192" lon="-1.75249">
        <ele>27.804</ele>
        <time>2019-11-11T08:20:02Z</time>
      </trkpt>
      <trkpt lat="48.06248" lon="-1.75193">
        <ele>32.41</ele>
        <time>2019-11-11T08:20:35Z</time>
      </trkpt>
      <trkpt lat="48.06335" lon="-1.75127">
        <ele>30.469</ele>
        <time>2019-11-11T08:21:05Z</time>
      </trkpt>
      <trkpt lat="48.06415" lon="-1.75012">
        <ele>29.343</ele>
        <time>2019-11-11T08:21:38Z</time>
      </trkpt>
      <trkpt lat="48.06495" lon="-1.74972">
        <ele>28.533</ele>
        <time>2019-11-11T08:22:08Z</time>
      </trkpt>
      <trkpt lat="48.06553" lon="-1.74957">
        <ele>29.134</ele>
        <time>2019-11-11T08:23:17Z</time>
      </trkpt>
      <trkpt lat="48.06633" lon="-1.74978">
        <ele>29.727</ele>
        <time>2019-11-11T08:23:50Z</time>
      </trkpt>
      <trkpt lat="48.06764" lon="-1.74978">
        <ele>29.808</ele>
        <time>2019-11-11T08:24:20Z</time>
      </trkpt>
      <trkpt lat="48.06896" lon="-1.74976">
        <ele>26.747</ele>
        <time>2019-11-11T08:24:50Z</time>
      </trkpt>
      <trkpt lat="48.07036" lon="-1.74972">
        <ele>27.252</ele>
        <time>2019-11-11T08:25:20Z</time>
      </trkpt>
      <trkpt lat="48.07212" lon="-1.74972">
        <ele>24.789</ele>
        <time>2019-11-11T08:25:53Z</time>
      </trkpt>
      <trkpt lat="48.07369" lon="-1.74911">
        <ele>22.507</ele>
        <time>2019-11-11T08:26:23Z</time>
      </trkpt>
      <trkpt lat="48.07477" lon="-1.74759">
        <ele>24.327</ele>
        <time>2019-11-11T08:26:53Z</time>
      </trkpt>
      <trkpt lat="48.07585" lon="-1.74558">
        <ele>23.417</ele>
        <time>2019-11-11T08:27:26Z</time>
      </trkpt>
      <trkpt lat="48.07672" lon="-1.74385">
        <ele>24.56</ele>
        <time>2019-11-11T08:27:56Z</time>
      </trkpt>
      <trkpt lat="48.07759" lon="-1.74219">
        <ele>25.325</ele>
        <time>2019-11-11T08:28:26Z</time>
      </trkpt>
      <trkpt lat="48.0785" lon="-1.74044">
        <ele>26.385</ele>
        <time>2019-11-11T08:28:56Z</time>
      </trkpt>
      <trkpt lat="48.07954" lon="-1.73843">
        <ele>29.674</ele>
        <time>2019-11-11T08:29:29Z</time>
      </trkpt>
      <trkpt lat="48.0805" lon="-1.73659">
        <ele>34.7</ele>
        <time>2019-11-11T08:29:59Z</time>
      </trkpt>
      <trkpt lat="48.08141" lon="-1.73487">
        <ele>29.114</ele>
        <time>2019-11-11T08:30:29Z</time>
      </trkpt>
      <trkpt lat="48.08235" lon="-1.73289">
        <ele>28.662</ele>
        <time>2019-11-11T08:31:02Z</time>
      </trkpt>
      <trkpt lat="48.08315" lon="-1.73118">
        <ele>27.99</ele>
        <time>2019-11-11T08:31:32Z</time>
      </trkpt>
      <trkpt lat="48.08394" lon="-1.72977">
        <ele>28.455</ele>
        <time>2019-11-11T08:32:02Z</time>
      </trkpt>
      <trkpt lat="48.0849" lon="-1.72807">
        <ele>26.702</ele>
        <time>2019-11-11T08:32:35Z</time>
      </trkpt>
      <trkpt lat="48.08564" lon="-1.72624">
        <ele>26.159</ele>
        <time>2019-11-11T08:33:05Z</time>
      </trkpt>
      <trkpt lat="48.08687" lon="-1.72535">
        <ele>27.218</ele>
        <time>2019-11-11T08:33:35Z</time>
      </trkpt>
      <trkpt lat="48.08798" lon="-1.72447">
        <ele>27.233</ele>
        <time>2019-11-11T08:34:05Z</time>
      </trkpt>
      <trkpt lat="48.08903" lon="-1.7229">
        <ele>32.496</ele>
        <time>2019-11-11T08:34:38Z</time>
      </trkpt>
      <trkpt lat="48.0899" lon="-1.72158">
        <ele>30.06</ele>
        <time>2019-11-11T08:35:08Z</time>
      </trkpt>
      <trkpt lat="48.09066" lon="-1.72044">
        <ele>32.51</ele>
        <time>2019-11-11T08:35:38Z</time>
      </trkpt>
      <trkpt lat="48.09137" lon="-1.71914">
        <ele>38.721</ele>
        <time>2019-11-11T08:36:11Z</time>
      </trkpt>
      <trkpt lat="48.09174" lon="-1.718">
        <ele>45.073</ele>
        <time>2019-11-11T08:36:41Z</time>
      </trkpt>
      <trkpt lat="48.09211" lon="-1.71686">
        <ele>42.278</ele>
        <time>2019-11-11T08:37:11Z</time>
      </trkpt>
      <trkpt lat="48.09249" lon="-1.71567">
        <ele>43.871</ele>
        <time>2019-11-11T08:37:41Z</time>
      </trkpt>
      <trkpt lat="48.0931" lon="-1.71455">
        <ele>46.664</ele>
        <time>2019-11-11T08:38:14Z</time>
      </trkpt>
      <trkpt lat="48.09406" lon="-1.71391">
        <ele>47.295</ele>
        <time>2019-11-11T08:38:44Z</time>
      </trkpt>
      <trkpt lat="48.09509" lon="-1.71322">
        <ele>43.605</ele>
        <time>2019-11-11T08:39:14Z</time>
      </trkpt>
      <trkpt lat="48.09611" lon="-1.71254">
        <ele>39.875</ele>
        <time>2019-11-11T08:39:47Z</time>
      </trkpt>
      <trkpt lat="48.09725" lon="-1.71335">
        <ele>33.565</ele>
        <time>2019-11-11T08:40:17Z</time>
      </trkpt>
      <trkpt lat="48.09839" lon="-1.71439">
        <ele>36.534</ele>
        <time>2019-11-11T08:40:47Z</time>
      </trkpt>
      <trkpt lat="48.0986" lon="-1.71354">
        <ele>37.306</ele>
        <time>2019-11-11T08:41:20Z</time>
      </trkpt>
      <trkpt lat="48.09959" lon="-1.71374">
        <ele>37.582</ele>
        <time>2019-11-11T08:41:53Z</time>
      </trkpt>
      <trkpt lat="48.10078" lon="-1.71387">
        <ele>34.472</ele>
        <time>2019-11-11T08:42:23Z</time>
      </trkpt>
      <trkpt lat="48.10143" lon="-1.71259">
        <ele>35.992</ele>
        <time>2019-11-11T08:42:53Z</time>
      </trkpt>
      <trkpt lat="48.10229" lon="-1.71206">
        <ele>37.297</ele>
        <time>2019-11-11T08:43:26Z</time>
      </trkpt>
      <trkpt lat="48.10253" lon="-1.71319">
        <ele>30.711</ele>
        <time>2019-11-11T08:43:59Z</time>
      </trkpt>
      <trkpt lat="48.10302" lon="-1.71351">
        <ele>26.08</ele>
        <time>2019-11-11T08:44:29Z</time>
      </trkpt>
      <trkpt lat="48.10357" lon="-1.71208">
        <ele>27.223</ele>
        <time>2019-11-11T08:45:02Z</time>
      </trkpt>
      <trkpt lat="48.10413" lon="-1.713">
        <ele>24.945</ele>
        <time>2019-11-11T08:45:32Z</time>
      </trkpt>
      <trkpt lat="48.10423" lon="-1.71435">
        <ele>27.392</ele>
        <time>2019-11-11T08:46:02Z</time>
      </trkpt>
      <trkpt lat="48.10412" lon="-1.71462">
        <ele>29.685</ele>
        <time>2019-11-11T08:47:53Z</time>
      </trkpt>
      <trkpt lat="48.10407" lon="-1.71461">
        <ele>27.149</ele>
        <time>2019-11-11T09:15:26Z</time>
      </trkpt>
      <trkpt lat="48.104" lon="-1.71465">
        <ele>29.765</ele>
        <time>2019-11-11T09:23:59Z</time>
      </trkpt>
      <trkpt lat="48.10403" lon="-1.71433">
        <ele>34.656</ele>
        <time>2019-11-11T09:26:53Z</time>
      </trkpt>
      <trkpt lat="48.10385" lon="-1.71247">
        <ele>33.805</ele>
        <time>2019-11-11T09:27:26Z</time>
      </trkpt>
      <trkpt lat="48.10393" lon="-1.71133">
        <ele>24.507</ele>
        <time>2019-11-11T09:27:59Z</time>
      </trkpt>
      <trkpt lat="48.10464" lon="-1.70963">
        <ele>29.054</ele>
        <time>2019-11-11T09:28:29Z</time>
      </trkpt>
      <trkpt lat="48.10522" lon="-1.70801">
        <ele>30.444</ele>
        <time>2019-11-11T09:28:59Z</time>
      </trkpt>
      <trkpt lat="48.10635" lon="-1.70846">
        <ele>25.886</ele>
        <time>2019-11-11T09:29:32Z</time>
      </trkpt>
      <trkpt lat="48.10636" lon="-1.70672">
        <ele>22.989</ele>
        <time>2019-11-11T09:30:02Z</time>
      </trkpt>
      <trkpt lat="48.10642" lon="-1.70491">
        <ele>24.448</ele>
        <time>2019-11-11T09:30:32Z</time>
      </trkpt>
      <trkpt lat="48.10654" lon="-1.70342">
        <ele>25.092</ele>
        <time>2019-11-11T09:31:05Z</time>
      </trkpt>
      <trkpt lat="48.10668" lon="-1.7018">
        <ele>30.24</ele>
        <time>2019-11-11T09:31:35Z</time>
      </trkpt>
      <trkpt lat="48.10702" lon="-1.69998">
        <ele>27.058</ele>
        <time>2019-11-11T09:32:05Z</time>
      </trkpt>
      <trkpt lat="48.10732" lon="-1.69832">
        <ele>25.151</ele>
        <time>2019-11-11T09:32:35Z</time>
      </trkpt>
      <trkpt lat="48.10672" lon="-1.69728">
        <ele>26.356</ele>
        <time>2019-11-11T09:33:11Z</time>
      </trkpt>
      <trkpt lat="48.10603" lon="-1.69655">
        <ele>27.742</ele>
        <time>2019-11-11T09:33:41Z</time>
      </trkpt>
      <trkpt lat="48.10634" lon="-1.69496">
        <ele>32.423</ele>
        <time>2019-11-11T09:34:11Z</time>
      </trkpt>
      <trkpt lat="48.10645" lon="-1.69338">
        <ele>48.625</ele>
        <time>2019-11-11T09:34:44Z</time>
      </trkpt>
      <trkpt lat="48.10701" lon="-1.69315">
        <ele>46.46</ele>
        <time>2019-11-11T09:35:14Z</time>
      </trkpt>
      <trkpt lat="48.10799" lon="-1.693">
        <ele>36.506</ele>
        <time>2019-11-11T09:35:44Z</time>
      </trkpt>
      <trkpt lat="48.1096" lon="-1.69288">
        <ele>46.034</ele>
        <time>2019-11-11T09:36:17Z</time>
      </trkpt>
      <trkpt lat="48.11082" lon="-1.69253">
        <ele>49.963</ele>
        <time>2019-11-11T09:36:47Z</time>
      </trkpt>
      <trkpt lat="48.11136" lon="-1.6905">
        <ele>39.788</ele>
        <time>2019-11-11T09:37:17Z</time>
      </trkpt>
      <trkpt lat="48.11184" lon="-1.68898">
        <ele>33.11</ele>
        <time>2019-11-11T09:37:50Z</time>
      </trkpt>
      <trkpt lat="48.11225" lon="-1.68712">
        <ele>41.972</ele>
        <time>2019-11-11T09:38:23Z</time>
      </trkpt>
      <trkpt lat="48.11332" lon="-1.68725">
        <ele>47.37</ele>
        <time>2019-11-11T09:38:53Z</time>
      </trkpt>
      <trkpt lat="48.1143" lon="-1.68762">
        <ele>51.023</ele>
        <time>2019-11-11T09:39:23Z</time>
      </trkpt>
      <trkpt lat="48.11585" lon="-1.68682">
        <ele>34.853</ele>
        <time>2019-11-11T09:39:56Z</time>
      </trkpt>
      <trkpt lat="48.11712" lon="-1.68602">
        <ele>30.678</ele>
        <time>2019-11-11T09:40:26Z</time>
      </trkpt>
      <trkpt lat="48.11802" lon="-1.68547">
        <ele>34.543</ele>
        <time>2019-11-11T09:40:56Z</time>
      </trkpt>
      <trkpt lat="48.11919" lon="-1.68427">
        <ele>40.223</ele>
        <time>2019-11-11T09:41:26Z</time>
      </trkpt>
      <trkpt lat="48.12043" lon="-1.68255">
        <ele>36.006</ele>
        <time>2019-11-11T09:41:59Z</time>
      </trkpt>
      <trkpt lat="48.12085" lon="-1.68161">
        <ele>31.477</ele>
        <time>2019-11-11T09:42:32Z</time>
      </trkpt>
      <trkpt lat="48.12208" lon="-1.68028">
        <ele>32.06</ele>
        <time>2019-11-11T09:43:02Z</time>
      </trkpt>
      <trkpt lat="48.12305" lon="-1.67837">
        <ele>31.303</ele>
        <time>2019-11-11T09:43:35Z</time>
      </trkpt>
      <trkpt lat="48.12346" lon="-1.67643">
        <ele>30.223</ele>
        <time>2019-11-11T09:44:05Z</time>
      </trkpt>
      <trkpt lat="48.12433" lon="-1.67476">
        <ele>25.909</ele>
        <time>2019-11-11T09:44:35Z</time>
      </trkpt>
      <trkpt lat="48.12507" lon="-1.6746">
        <ele>26.571</ele>
        <time>2019-11-11T09:45:05Z</time>
      </trkpt>
      <trkpt lat="48.1261" lon="-1.67568">
        <ele>28.719</ele>
        <time>2019-11-11T09:45:38Z</time>
      </trkpt>
      <trkpt lat="48.1264" lon="-1.67753">
        <ele>22.789</ele>
        <time>2019-11-11T09:46:08Z</time>
      </trkpt>
      <trkpt lat="48.12713" lon="-1.67889">
        <ele>24.291</ele>
        <time>2019-11-11T09:46:38Z</time>
      </trkpt>
      <trkpt lat="48.12849" lon="-1.67929">
        <ele>26.465</ele>
        <time>2019-11-11T09:47:11Z</time>
      </trkpt>
      <trkpt lat="48.12976" lon="-1.67977">
        <ele>26.457</ele>
        <time>2019-11-11T09:47:41Z</time>
      </trkpt>
      <trkpt lat="48.13077" lon="-1.67953">
        <ele>29.602</ele>
        <time>2019-11-11T09:48:11Z</time>
      </trkpt>
      <trkpt lat="48.13092" lon="-1.67809">
        <ele>24.456</ele>
        <time>2019-11-11T09:48:44Z</time>
      </trkpt>
      <trkpt lat="48.13116" lon="-1.67677">
        <ele>27.29</ele>
        <time>2019-11-11T09:49:14Z</time>
      </trkpt>
      <trkpt lat="48.13135" lon="-1.67601">
        <ele>27.402</ele>
        <time>2019-11-11T10:02:17Z</time>
      </trkpt>
      <trkpt lat="48.13186" lon="-1.67446">
        <ele>30.302</ele>
        <time>2019-11-11T10:02:47Z</time>
      </trkpt>
      <trkpt lat="48.13254" lon="-1.67289">
        <ele>34.227</ele>
        <time>2019-11-11T10:03:20Z</time>
      </trkpt>
      <trkpt lat="48.13263" lon="-1.67105">
        <ele>24.607</ele>
        <time>2019-11-11T10:03:50Z</time>
      </trkpt>
      <trkpt lat="48.13258" lon="-1.66919">
        <ele>32.152</ele>
        <time>2019-11-11T10:04:20Z</time>
      </trkpt>
      <trkpt lat="48.1327" lon="-1.66767">
        <ele>41.293</ele>
        <time>2019-11-11T10:04:53Z</time>
      </trkpt>
      <trkpt lat="48.13201" lon="-1.66664">
        <ele>46.679</ele>
        <time>2019-11-11T10:05:23Z</time>
      </trkpt>
      <trkpt lat="48.13126" lon="-1.66523">
        <ele>41.401</ele>
        <time>2019-11-11T10:05:53Z</time>
      </trkpt>
      <trkpt lat="48.13084" lon="-1.66394">
        <ele>49.222</ele>
        <time>2019-11-11T10:06:23Z</time>
      </trkpt>
      <trkpt lat="48.13045" lon="-1.66296">
        <ele>54.05</ele>
        <time>2019-11-11T10:06:56Z</time>
      </trkpt>
      <trkpt lat="48.13125" lon="-1.66227">
        <ele>52.294</ele>
        <time>2019-11-11T10:07:26Z</time>
      </trkpt>
      <trkpt lat="48.13252" lon="-1.66144">
        <ele>45.167</ele>
        <time>2019-11-11T10:07:56Z</time>
      </trkpt>
      <trkpt lat="48.13392" lon="-1.66007">
        <ele>50.048</ele>
        <time>2019-11-11T10:08:29Z</time>
      </trkpt>
      <trkpt lat="48.13544" lon="-1.65938">
        <ele>49.634</ele>
        <time>2019-11-11T10:08:59Z</time>
      </trkpt>
      <trkpt lat="48.13645" lon="-1.65899">
        <ele>47.87</ele>
        <time>2019-11-11T10:09:29Z</time>
      </trkpt>
      <trkpt lat="48.13714" lon="-1.65871">
        <ele>52.251</ele>
        <time>2019-11-11T10:09:59Z</time>
      </trkpt>
      <trkpt lat="48.13784" lon="-1.65859">
        <ele>60.508</ele>
        <time>2019-11-11T10:10:32Z</time>
      </trkpt>
      <trkpt lat="48.13861" lon="-1.65847">
        <ele>63.693</ele>
        <time>2019-11-11T10:11:02Z</time>
      </trkpt>
      <trkpt lat="48.13935" lon="-1.65813">
        <ele>76.005</ele>
        <time>2019-11-11T10:11:32Z</time>
      </trkpt>
      <trkpt lat="48.14039" lon="-1.65768">
        <ele>62.69</ele>
        <time>2019-11-11T10:12:05Z</time>
      </trkpt>
      <trkpt lat="48.14219" lon="-1.65733">
        <ele>55.174</ele>
        <time>2019-11-11T10:12:35Z</time>
      </trkpt>
      <trkpt lat="48.14413" lon="-1.65675">
        <ele>47.441</ele>
        <time>2019-11-11T10:13:05Z</time>
      </trkpt>
      <trkpt lat="48.1458" lon="-1.65684">
        <ele>44.264</ele>
        <time>2019-11-11T10:13:38Z</time>
      </trkpt>
      <trkpt lat="48.14757" lon="-1.65683">
        <ele>45.337</ele>
        <time>2019-11-11T10:14:08Z</time>
      </trkpt>
      <trkpt lat="48.14953" lon="-1.65641">
        <ele>44.038</ele>
        <time>2019-11-11T10:14:38Z</time>
      </trkpt>
      <trkpt lat="48.15116" lon="-1.65513">
        <ele>41.694</ele>
        <time>2019-11-11T10:15:08Z</time>
      </trkpt>
      <trkpt lat="48.15304" lon="-1.65332">
        <ele>29.182</ele>
        <time>2019-11-11T10:15:41Z</time>
      </trkpt>
      <trkpt lat="48.15438" lon="-1.65197">
        <ele>32.999</ele>
        <time>2019-11-11T10:16:11Z</time>
      </trkpt>
      <trkpt lat="48.15577" lon="-1.65089">
        <ele>37.982</ele>
        <time>2019-11-11T10:16:41Z</time>
      </trkpt>
      <trkpt lat="48.15705" lon="-1.65021">
        <ele>38.158</ele>
        <time>2019-11-11T10:17:14.001Z</time>
      </trkpt>
      <trkpt lat="48.15814" lon="-1.64955">
        <ele>42.1</ele>
        <time>2019-11-11T10:17:44Z</time>
      </trkpt>
      <trkpt lat="48.1594" lon="-1.6489">
        <ele>40.999</ele>
        <time>2019-11-11T10:18:14Z</time>
      </trkpt>
      <trkpt lat="48.16088" lon="-1.64808">
        <ele>38.682</ele>
        <time>2019-11-11T10:18:44Z</time>
      </trkpt>
      <trkpt lat="48.1624" lon="-1.64727">
        <ele>38.493</ele>
        <time>2019-11-11T10:19:17Z</time>
      </trkpt>
      <trkpt lat="48.16374" lon="-1.64657">
        <ele>41.393</ele>
        <time>2019-11-11T10:19:47Z</time>
      </trkpt>
      <trkpt lat="48.16499" lon="-1.64587">
        <ele>41.859</ele>
        <time>2019-11-11T10:20:17Z</time>
      </trkpt>
      <trkpt lat="48.16678" lon="-1.64492">
        <ele>34.857</ele>
        <time>2019-11-11T10:20:50Z</time>
      </trkpt>
      <trkpt lat="48.16874" lon="-1.64376">
        <ele>30.445</ele>
        <time>2019-11-11T10:21:20Z</time>
      </trkpt>
      <trkpt lat="48.17014" lon="-1.64265">
        <ele>36.347</ele>
        <time>2019-11-11T10:21:50Z</time>
      </trkpt>
      <trkpt lat="48.17148" lon="-1.64156">
        <ele>35.045</ele>
        <time>2019-11-11T10:22:20Z</time>
      </trkpt>
      <trkpt lat="48.17285" lon="-1.64057">
        <ele>36.656</ele>
        <time>2019-11-11T10:22:53Z</time>
      </trkpt>
      <trkpt lat="48.1742" lon="-1.64008">
        <ele>38.321</ele>
        <time>2019-11-11T10:23:23Z</time>
      </trkpt>
      <trkpt lat="48.17555" lon="-1.63958">
        <ele>36.389</ele>
        <time>2019-11-11T10:23:53Z</time>
      </trkpt>
      <trkpt lat="48.17698" lon="-1.63927">
        <ele>38.501</ele>
        <time>2019-11-11T10:24:26Z</time>
      </trkpt>
      <trkpt lat="48.17823" lon="-1.63893">
        <ele>40.438</ele>
        <time>2019-11-11T10:24:56Z</time>
      </trkpt>
      <trkpt lat="48.17914" lon="-1.63802">
        <ele>39.292</ele>
        <time>2019-11-11T10:25:26Z</time>
      </trkpt>
      <trkpt lat="48.17989" lon="-1.63711">
        <ele>43.776</ele>
        <time>2019-11-11T10:25:59Z</time>
      </trkpt>
      <trkpt lat="48.18076" lon="-1.63602">
        <ele>48.315</ele>
        <time>2019-11-11T10:26:29Z</time>
      </trkpt>
      <trkpt lat="48.18139" lon="-1.63853">
        <ele>47.169</ele>
        <time>2019-11-11T10:26:59Z</time>
      </trkpt>
      <trkpt lat="48.18169" lon="-1.63992">
        <ele>35.082</ele>
        <time>2019-11-11T10:27:29Z</time>
      </trkpt>
      <trkpt lat="48.18183" lon="-1.64067">
        <ele>34.356</ele>
        <time>2019-11-11T10:28:08Z</time>
      </trkpt>
      <trkpt lat="48.18174" lon="-1.64009">
        <ele>34.81</ele>
        <time>2019-11-11T10:28:56Z</time>
      </trkpt>
      <trkpt lat="48.18275" lon="-1.63965">
        <ele>34.326</ele>
        <time>2019-11-11T10:29:29Z</time>
      </trkpt>
      <trkpt lat="48.18389" lon="-1.63887">
        <ele>35.08</ele>
        <time>2019-11-11T10:30:02Z</time>
      </trkpt>
      <trkpt lat="48.18471" lon="-1.63829">
        <ele>33.271</ele>
        <time>2019-11-11T10:30:32Z</time>
      </trkpt>
      <trkpt lat="48.18531" lon="-1.63927">
        <ele>34.254</ele>
        <time>2019-11-11T10:31:02Z</time>
      </trkpt>
      <trkpt lat="48.18542" lon="-1.64079">
        <ele>35.213</ele>
        <time>2019-11-11T10:31:32Z</time>
      </trkpt>
      <trkpt lat="48.1854" lon="-1.64137">
        <ele>35.509</ele>
        <time>2019-11-11T10:32:11Z</time>
      </trkpt>
      <trkpt lat="48.18554" lon="-1.64217">
        <ele>44.776</ele>
        <time>2019-11-11T10:32:44Z</time>
      </trkpt>
      <trkpt lat="48.18588" lon="-1.64278">
        <ele>49.991</ele>
        <time>2019-11-11T10:33:14Z</time>
      </trkpt>
      <trkpt lat="48.18669" lon="-1.64279">
        <ele>51.507</ele>
        <time>2019-11-11T10:33:47Z</time>
      </trkpt>
      <trkpt lat="48.18741" lon="-1.64279">
        <ele>58.516</ele>
        <time>2019-11-11T10:34:17Z</time>
      </trkpt>
      <trkpt lat="48.18821" lon="-1.64278">
        <ele>54.25</ele>
        <time>2019-11-11T10:34:47Z</time>
      </trkpt>
      <trkpt lat="48.18935" lon="-1.64277">
        <ele>54.957</ele>
        <time>2019-11-11T10:35:17Z</time>
      </trkpt>
      <trkpt lat="48.19069" lon="-1.64299">
        <ele>59.053</ele>
        <time>2019-11-11T10:35:50Z</time>
      </trkpt>
      <trkpt lat="48.19153" lon="-1.6431">
        <ele>57.184</ele>
        <time>2019-11-11T10:36:20Z</time>
      </trkpt>
      <trkpt lat="48.19238" lon="-1.64344">
        <ele>56.069</ele>
        <time>2019-11-11T10:36:50Z</time>
      </trkpt>
      <trkpt lat="48.19249" lon="-1.64472">
        <ele>57.42</ele>
        <time>2019-11-11T10:37:23Z</time>
      </trkpt>
      <trkpt lat="48.1924" lon="-1.64621">
        <ele>61.126</ele>
        <time>2019-11-11T10:37:53Z</time>
      </trkpt>
      <trkpt lat="48.19217" lon="-1.64826">
        <ele>58.592</ele>
        <time>2019-11-11T10:38:23Z</time>
      </trkpt>
      <trkpt lat="48.1939" lon="-1.65019">
        <ele>49.643</ele>
        <time>2019-11-11T10:38:56Z</time>
      </trkpt>
      <trkpt lat="48.19478" lon="-1.65064">
        <ele>40.625</ele>
        <time>2019-11-11T10:39:26Z</time>
      </trkpt>
      <trkpt lat="48.19535" lon="-1.65079">
        <ele>45.948</ele>
        <time>2019-11-11T10:39:56Z</time>
      </trkpt>
      <trkpt lat="48.19608" lon="-1.65103">
        <ele>52.121</ele>
        <time>2019-11-11T10:40:26Z</time>
      </trkpt>
      <trkpt lat="48.19675" lon="-1.65071">
        <ele>54.232</ele>
        <time>2019-11-11T10:40:59Z</time>
      </trkpt>
      <trkpt lat="48.19705" lon="-1.64754">
        <ele>49.438</ele>
        <time>2019-11-11T10:41:29Z</time>
      </trkpt>
      <trkpt lat="48.19833" lon="-1.64761">
        <ele>46.885</ele>
        <time>2019-11-11T10:41:59Z</time>
      </trkpt>
      <trkpt lat="48.1998" lon="-1.64728">
        <ele>46.389</ele>
        <time>2019-11-11T10:42:32Z</time>
      </trkpt>
      <trkpt lat="48.20091" lon="-1.64821">
        <ele>47.218</ele>
        <time>2019-11-11T10:43:02Z</time>
      </trkpt>
      <trkpt lat="48.20167" lon="-1.64816">
        <ele>52.13</ele>
        <time>2019-11-11T10:43:32Z</time>
      </trkpt>
      <trkpt lat="48.20237" lon="-1.64808">
        <ele>52.953</ele>
        <time>2019-11-11T10:44:02Z</time>
      </trkpt>
      <trkpt lat="48.20324" lon="-1.64811">
        <ele>56.34</ele>
        <time>2019-11-11T10:44:35Z</time>
      </trkpt>
      <trkpt lat="48.20419" lon="-1.64829">
        <ele>59.428</ele>
        <time>2019-11-11T10:45:05Z</time>
      </trkpt>
      <trkpt lat="48.20527" lon="-1.64802">
        <ele>62.34</ele>
        <time>2019-11-11T10:45:35Z</time>
      </trkpt>
      <trkpt lat="48.20661" lon="-1.64692">
        <ele>65.251</ele>
        <time>2019-11-11T10:46:08Z</time>
      </trkpt>
      <trkpt lat="48.20727" lon="-1.64656">
        <ele>63.053</ele>
        <time>2019-11-11T10:46:38Z</time>
      </trkpt>
      <trkpt lat="48.20775" lon="-1.64639">
        <ele>63.909</ele>
        <time>2019-11-11T10:50:20Z</time>
      </trkpt>
      <trkpt lat="48.20942" lon="-1.64579">
        <ele>59.58</ele>
        <time>2019-11-11T10:50:50Z</time>
      </trkpt>
      <trkpt lat="48.21006" lon="-1.6439">
        <ele>45.049</ele>
        <time>2019-11-11T10:51:23Z</time>
      </trkpt>
      <trkpt lat="48.20964" lon="-1.64071">
        <ele>40.058</ele>
        <time>2019-11-11T10:51:53Z</time>
      </trkpt>
      <trkpt lat="48.20988" lon="-1.63723">
        <ele>33.282</ele>
        <time>2019-11-11T10:52:23Z</time>
      </trkpt>
      <trkpt lat="48.2098" lon="-1.63462">
        <ele>36.398</ele>
        <time>2019-11-11T10:52:56Z</time>
      </trkpt>
      <trkpt lat="48.20872" lon="-1.63386">
        <ele>39.715</ele>
        <time>2019-11-11T10:53:26Z</time>
      </trkpt>
      <trkpt lat="48.20796" lon="-1.63379">
        <ele>49.196</ele>
        <time>2019-11-11T10:53:56Z</time>
      </trkpt>
      <trkpt lat="48.20793" lon="-1.63254">
        <ele>51.273</ele>
        <time>2019-11-11T10:54:29Z</time>
      </trkpt>
      <trkpt lat="48.20807" lon="-1.63152">
        <ele>55.738</ele>
        <time>2019-11-11T10:54:59Z</time>
      </trkpt>
      <trkpt lat="48.20849" lon="-1.63078">
        <ele>56.77</ele>
        <time>2019-11-11T10:55:29Z</time>
      </trkpt>
      <trkpt lat="48.20902" lon="-1.6301">
        <ele>62.477</ele>
        <time>2019-11-11T10:55:59Z</time>
      </trkpt>
      <trkpt lat="48.20987" lon="-1.63026">
        <ele>74.192</ele>
        <time>2019-11-11T10:56:32Z</time>
      </trkpt>
      <trkpt lat="48.21087" lon="-1.63082">
        <ele>71.82</ele>
        <time>2019-11-11T10:57:02Z</time>
      </trkpt>
      <trkpt lat="48.21157" lon="-1.63069">
        <ele>71.243</ele>
        <time>2019-11-11T10:57:32Z</time>
      </trkpt>
      <trkpt lat="48.21216" lon="-1.63001">
        <ele>75.48</ele>
        <time>2019-11-11T10:58:05Z</time>
      </trkpt>
      <trkpt lat="48.21295" lon="-1.62973">
        <ele>84.337</ele>
        <time>2019-11-11T10:58:35Z</time>
      </trkpt>
      <trkpt lat="48.21374" lon="-1.62965">
        <ele>80.955</ele>
        <time>2019-11-11T10:59:05Z</time>
      </trkpt>
      <trkpt lat="48.21399" lon="-1.63159">
        <ele>78.261</ele>
        <time>2019-11-11T10:59:35Z</time>
      </trkpt>
      <trkpt lat="48.21432" lon="-1.63423">
        <ele>70.219</ele>
        <time>2019-11-11T11:00:08Z</time>
      </trkpt>
      <trkpt lat="48.21476" lon="-1.63741">
        <ele>54.29</ele>
        <time>2019-11-11T11:00:38Z</time>
      </trkpt>
      <trkpt lat="48.21496" lon="-1.64069">
        <ele>46.328</ele>
        <time>2019-11-11T11:01:08Z</time>
      </trkpt>
      <trkpt lat="48.21629" lon="-1.64254">
        <ele>35.713</ele>
        <time>2019-11-11T11:01:41Z</time>
      </trkpt>
      <trkpt lat="48.2169" lon="-1.64109">
        <ele>31.034</ele>
        <time>2019-11-11T11:02:11Z</time>
      </trkpt>
      <trkpt lat="48.21758" lon="-1.63988">
        <ele>33.953</ele>
        <time>2019-11-11T11:02:41Z</time>
      </trkpt>
      <trkpt lat="48.21853" lon="-1.63951">
        <ele>41.137</ele>
        <time>2019-11-11T11:03:11Z</time>
      </trkpt>
      <trkpt lat="48.21978" lon="-1.63973">
        <ele>55.558</ele>
        <time>2019-11-11T11:03:44Z</time>
      </trkpt>
      <trkpt lat="48.22102" lon="-1.63976">
        <ele>52.119</ele>
        <time>2019-11-11T11:04:14Z</time>
      </trkpt>
      <trkpt lat="48.22208" lon="-1.6398">
        <ele>51.31</ele>
        <time>2019-11-11T11:04:44Z</time>
      </trkpt>
      <trkpt lat="48.22319" lon="-1.6399">
        <ele>48.786</ele>
        <time>2019-11-11T11:05:17Z</time>
      </trkpt>
      <trkpt lat="48.22417" lon="-1.63998">
        <ele>55.947</ele>
        <time>2019-11-11T11:05:47Z</time>
      </trkpt>
      <trkpt lat="48.22527" lon="-1.64007">
        <ele>45.049</ele>
        <time>2019-11-11T11:06:17Z</time>
      </trkpt>
      <trkpt lat="48.22638" lon="-1.64031">
        <ele>41.289</ele>
        <time>2019-11-11T11:06:50Z</time>
      </trkpt>
      <trkpt lat="48.22741" lon="-1.64057">
        <ele>43.682</ele>
        <time>2019-11-11T11:07:20Z</time>
      </trkpt>
      <trkpt lat="48.22856" lon="-1.6411">
        <ele>46.052</ele>
        <time>2019-11-11T11:07:50Z</time>
      </trkpt>
      <trkpt lat="48.22956" lon="-1.64154">
        <ele>49.572</ele>
        <time>2019-11-11T11:08:20Z</time>
      </trkpt>
      <trkpt lat="48.23069" lon="-1.642">
        <ele>48.565</ele>
        <time>2019-11-11T11:08:53Z</time>
      </trkpt>
      <trkpt lat="48.23164" lon="-1.64243">
        <ele>45.218</ele>
        <time>2019-11-11T11:09:23Z</time>
      </trkpt>
      <trkpt lat="48.2325" lon="-1.64327">
        <ele>42.578</ele>
        <time>2019-11-11T11:09:53Z</time>
      </trkpt>
      <trkpt lat="48.23343" lon="-1.6444">
        <ele>39.075</ele>
        <time>2019-11-11T11:10:26Z</time>
      </trkpt>
      <trkpt lat="48.23418" lon="-1.64531">
        <ele>37.938</ele>
        <time>2019-11-11T11:10:56Z</time>
      </trkpt>
      <trkpt lat="48.23502" lon="-1.6463">
        <ele>33.913</ele>
        <time>2019-11-11T11:11:26Z</time>
      </trkpt>
      <trkpt lat="48.23586" lon="-1.64739">
        <ele>37.517</ele>
        <time>2019-11-11T11:11:56Z</time>
      </trkpt>
      <trkpt lat="48.23645" lon="-1.64854">
        <ele>39.373</ele>
        <time>2019-11-11T11:12:29Z</time>
      </trkpt>
      <trkpt lat="48.23737" lon="-1.6489">
        <ele>43.672</ele>
        <time>2019-11-11T11:12:59Z</time>
      </trkpt>
      <trkpt lat="48.23813" lon="-1.65034">
        <ele>51.144</ele>
        <time>2019-11-11T11:13:29Z</time>
      </trkpt>
      <trkpt lat="48.239" lon="-1.65207">
        <ele>55.16</ele>
        <time>2019-11-11T11:14:02Z</time>
      </trkpt>
      <trkpt lat="48.23963" lon="-1.65343">
        <ele>49.244</ele>
        <time>2019-11-11T11:14:32Z</time>
      </trkpt>
      <trkpt lat="48.2404" lon="-1.65458">
        <ele>49.222</ele>
        <time>2019-11-11T11:15:02Z</time>
      </trkpt>
      <trkpt lat="48.24189" lon="-1.65471">
        <ele>53.841</ele>
        <time>2019-11-11T11:15:32Z</time>
      </trkpt>
      <trkpt lat="48.24335" lon="-1.65478">
        <ele>54.395</ele>
        <time>2019-11-11T11:16:05Z</time>
      </trkpt>
      <trkpt lat="48.24465" lon="-1.65487">
        <ele>54.827</ele>
        <time>2019-11-11T11:16:35Z</time>
      </trkpt>
      <trkpt lat="48.24564" lon="-1.65494">
        <ele>55.149</ele>
        <time>2019-11-11T11:17:05Z</time>
      </trkpt>
      <trkpt lat="48.24631" lon="-1.65496">
        <ele>57.157</ele>
        <time>2019-11-11T11:17:38Z</time>
      </trkpt>
      <trkpt lat="48.24662" lon="-1.65531">
        <ele>54.826</ele>
        <time>2019-11-11T11:18:35Z</time>
      </trkpt>
      <trkpt lat="48.24701" lon="-1.65604">
        <ele>56.917</ele>
        <time>2019-11-11T11:19:05Z</time>
      </trkpt>
      <trkpt lat="48.24752" lon="-1.65641">
        <ele>59.826</ele>
        <time>2019-11-11T11:19:38Z</time>
      </trkpt>
      <trkpt lat="48.24763" lon="-1.65556">
        <ele>67.124</ele>
        <time>2019-11-11T11:20:08Z</time>
      </trkpt>
      <trkpt lat="48.24767" lon="-1.65466">
        <ele>76.541</ele>
        <time>2019-11-11T11:20:38Z</time>
      </trkpt>
      <trkpt lat="48.24798" lon="-1.65404">
        <ele>84.558</ele>
        <time>2019-11-11T11:21:08Z</time>
      </trkpt>
      <trkpt lat="48.24802" lon="-1.65513">
        <ele>85.371</ele>
        <time>2019-11-11T11:21:50Z</time>
      </trkpt>
      <trkpt lat="48.24813" lon="-1.65613">
        <ele>85.225</ele>
        <time>2019-11-11T11:22:20Z</time>
      </trkpt>
      <trkpt lat="48.24839" lon="-1.65699">
        <ele>87.11</ele>
        <time>2019-11-11T11:22:53Z</time>
      </trkpt>
      <trkpt lat="48.24878" lon="-1.65761">
        <ele>88.784</ele>
        <time>2019-11-11T11:23:26Z</time>
      </trkpt>
      <trkpt lat="48.24878" lon="-1.65703">
        <ele>91.035</ele>
        <time>2019-11-11T11:23:56Z</time>
      </trkpt>
      <trkpt lat="48.2487" lon="-1.65594">
        <ele>97.823</ele>
        <time>2019-11-11T11:24:26Z</time>
      </trkpt>
      <trkpt lat="48.24858" lon="-1.6543">
        <ele>100.181</ele>
        <time>2019-11-11T11:24:56Z</time>
      </trkpt>
      <trkpt lat="48.24942" lon="-1.65341">
        <ele>95.33</ele>
        <time>2019-11-11T11:25:29Z</time>
      </trkpt>
      <trkpt lat="48.25012" lon="-1.65335">
        <ele>92.61</ele>
        <time>2019-11-11T11:25:59Z</time>
      </trkpt>
      <trkpt lat="48.25087" lon="-1.65321">
        <ele>94.859</ele>
        <time>2019-11-11T11:26:29Z</time>
      </trkpt>
      <trkpt lat="48.25176" lon="-1.65295">
        <ele>98.045</ele>
        <time>2019-11-11T11:27:02Z</time>
      </trkpt>
      <trkpt lat="48.25322" lon="-1.65201">
        <ele>92.012</ele>
        <time>2019-11-11T11:27:32Z</time>
      </trkpt>
      <trkpt lat="48.25477" lon="-1.6515">
        <ele>87.674</ele>
        <time>2019-11-11T11:28:02Z</time>
      </trkpt>
      <trkpt lat="48.25565" lon="-1.65174">
        <ele>90.672</ele>
        <time>2019-11-11T11:28:32Z</time>
      </trkpt>
      <trkpt lat="48.25676" lon="-1.65182">
        <ele>95.734</ele>
        <time>2019-11-11T11:29:05Z</time>
      </trkpt>
      <trkpt lat="48.25838" lon="-1.65169">
        <ele>92.264</ele>
        <time>2019-11-11T11:29:35Z</time>
      </trkpt>
      <trkpt lat="48.2602" lon="-1.65218">
        <ele>89.11</ele>
        <time>2019-11-11T11:30:05Z</time>
      </trkpt>
      <trkpt lat="48.26199" lon="-1.65147">
        <ele>81.566</ele>
        <time>2019-11-11T11:30:38Z</time>
      </trkpt>
      <trkpt lat="48.26271" lon="-1.65116">
        <ele>81.727</ele>
        <time>2019-11-11T11:31:08Z</time>
      </trkpt>
      <trkpt lat="48.26331" lon="-1.65111">
        <ele>91.209</ele>
        <time>2019-11-11T11:31:38Z</time>
      </trkpt>
      <trkpt lat="48.26397" lon="-1.65105">
        <ele>94.57</ele>
        <time>2019-11-11T11:32:11Z</time>
      </trkpt>
      <trkpt lat="48.26463" lon="-1.65098">
        <ele>94.908</ele>
        <time>2019-11-11T11:32:41Z</time>
      </trkpt>
      <trkpt lat="48.26527" lon="-1.65072">
        <ele>97.583</ele>
        <time>2019-11-11T11:33:11Z</time>
      </trkpt>
      <trkpt lat="48.26598" lon="-1.65015">
        <ele>99.026</ele>
        <time>2019-11-11T11:33:41Z</time>
      </trkpt>
      <trkpt lat="48.26663" lon="-1.64974">
        <ele>106.436</ele>
        <time>2019-11-11T11:34:14Z</time>
      </trkpt>
      <trkpt lat="48.26735" lon="-1.64923">
        <ele>110.65</ele>
        <time>2019-11-11T11:34:44Z</time>
      </trkpt>
      <trkpt lat="48.26813" lon="-1.64879">
        <ele>110.041</ele>
        <time>2019-11-11T11:35:14Z</time>
      </trkpt>
      <trkpt lat="48.27024" lon="-1.64784">
        <ele>96.406</ele>
        <time>2019-11-11T11:35:47Z</time>
      </trkpt>
      <trkpt lat="48.27287" lon="-1.64663">
        <ele>76.038</ele>
        <time>2019-11-11T11:36:17Z</time>
      </trkpt>
      <trkpt lat="48.27446" lon="-1.64536">
        <ele>70.386</ele>
        <time>2019-11-11T11:36:47Z</time>
      </trkpt>
      <trkpt lat="48.27646" lon="-1.64378">
        <ele>63.372</ele>
        <time>2019-11-11T11:37:17Z</time>
      </trkpt>
      <trkpt lat="48.27885" lon="-1.64339">
        <ele>59.52</ele>
        <time>2019-11-11T11:37:50Z</time>
      </trkpt>
      <trkpt lat="48.27951" lon="-1.64306">
        <ele>60.46</ele>
        <time>2019-11-11T11:43:20Z</time>
      </trkpt>
      <trkpt lat="48.28047" lon="-1.64147">
        <ele>59.299</ele>
        <time>2019-11-11T11:43:50Z</time>
      </trkpt>
      <trkpt lat="48.28169" lon="-1.64023">
        <ele>56.969</ele>
        <time>2019-11-11T11:44:23Z</time>
      </trkpt>
      <trkpt lat="48.2825" lon="-1.63974">
        <ele>58.444</ele>
        <time>2019-11-11T11:44:53Z</time>
      </trkpt>
      <trkpt lat="48.28297" lon="-1.63918">
        <ele>60.948</ele>
        <time>2019-11-11T11:45:23Z</time>
      </trkpt>
      <trkpt lat="48.28333" lon="-1.63856">
        <ele>70.783</ele>
        <time>2019-11-11T11:45:53Z</time>
      </trkpt>
      <trkpt lat="48.28392" lon="-1.63827">
        <ele>75.664</ele>
        <time>2019-11-11T11:46:26Z</time>
      </trkpt>
      <trkpt lat="48.28451" lon="-1.63824">
        <ele>79.677</ele>
        <time>2019-11-11T11:46:56Z</time>
      </trkpt>
      <trkpt lat="48.28506" lon="-1.63813">
        <ele>83.391</ele>
        <time>2019-11-11T11:47:26Z</time>
      </trkpt>
      <trkpt lat="48.28573" lon="-1.63795">
        <ele>92.957</ele>
        <time>2019-11-11T11:48:02Z</time>
      </trkpt>
      <trkpt lat="48.28645" lon="-1.63773">
        <ele>95.138</ele>
        <time>2019-11-11T11:48:32Z</time>
      </trkpt>
      <trkpt lat="48.28776" lon="-1.63742">
        <ele>91.16</ele>
        <time>2019-11-11T11:49:02Z</time>
      </trkpt>
      <trkpt lat="48.28954" lon="-1.63577">
        <ele>79.503</ele>
        <time>2019-11-11T11:49:35Z</time>
      </trkpt>
      <trkpt lat="48.29149" lon="-1.63499">
        <ele>74.964</ele>
        <time>2019-11-11T11:50:05Z</time>
      </trkpt>
      <trkpt lat="48.29219" lon="-1.63463">
        <ele>73.82</ele>
        <time>2019-11-11T11:50:35Z</time>
      </trkpt>
      <trkpt lat="48.29286" lon="-1.63465">
        <ele>80.815</ele>
        <time>2019-11-11T11:51:05Z</time>
      </trkpt>
      <trkpt lat="48.29353" lon="-1.63503">
        <ele>83.34</ele>
        <time>2019-11-11T11:51:38Z</time>
      </trkpt>
      <trkpt lat="48.29412" lon="-1.63533">
        <ele>88.739</ele>
        <time>2019-11-11T11:52:08Z</time>
      </trkpt>
      <trkpt lat="48.29475" lon="-1.63539">
        <ele>98.476</ele>
        <time>2019-11-11T11:52:38Z</time>
      </trkpt>
      <trkpt lat="48.29599" lon="-1.63547">
        <ele>104.881</ele>
        <time>2019-11-11T11:53:11Z</time>
      </trkpt>
      <trkpt lat="48.29763" lon="-1.63549">
        <ele>94.176</ele>
        <time>2019-11-11T11:53:41Z</time>
      </trkpt>
      <trkpt lat="48.29908" lon="-1.63554">
        <ele>87.319</ele>
        <time>2019-11-11T11:54:11Z</time>
      </trkpt>
      <trkpt lat="48.30038" lon="-1.63557">
        <ele>83.007</ele>
        <time>2019-11-11T11:54:41Z</time>
      </trkpt>
      <trkpt lat="48.30231" lon="-1.63563">
        <ele>78.406</ele>
        <time>2019-11-11T11:55:14Z</time>
      </trkpt>
      <trkpt lat="48.30361" lon="-1.63566">
        <ele>77.678</ele>
        <time>2019-11-11T11:55:44Z</time>
      </trkpt>
      <trkpt lat="48.30401" lon="-1.63567">
        <ele>78.812</ele>
        <time>2019-11-11T12:11:50Z</time>
      </trkpt>
      <trkpt lat="48.30478" lon="-1.63567">
        <ele>81.365</ele>
        <time>2019-11-11T12:12:26Z</time>
      </trkpt>
      <trkpt lat="48.30574" lon="-1.63571">
        <ele>83.945</ele>
        <time>2019-11-11T12:12:56Z</time>
      </trkpt>
      <trkpt lat="48.30672" lon="-1.63574">
        <ele>87.629</ele>
        <time>2019-11-11T12:13:26Z</time>
      </trkpt>
      <trkpt lat="48.30771" lon="-1.63574">
        <ele>87.562</ele>
        <time>2019-11-11T12:13:56Z</time>
      </trkpt>
      <trkpt lat="48.3088" lon="-1.6358">
        <ele>84.54</ele>
        <time>2019-11-11T12:14:29Z</time>
      </trkpt>
      <trkpt lat="48.3098" lon="-1.63577">
        <ele>84.861</ele>
        <time>2019-11-11T12:14:59Z</time>
      </trkpt>
      <trkpt lat="48.31093" lon="-1.63573">
        <ele>84.503</ele>
        <time>2019-11-11T12:15:29Z</time>
      </trkpt>
      <trkpt lat="48.31188" lon="-1.63565">
        <ele>85.456</ele>
        <time>2019-11-11T12:16:02Z</time>
      </trkpt>
      <trkpt lat="48.31277" lon="-1.63561">
        <ele>87.506</ele>
        <time>2019-11-11T12:16:32Z</time>
      </trkpt>
      <trkpt lat="48.31386" lon="-1.63554">
        <ele>89.854</ele>
        <time>2019-11-11T12:17:02Z</time>
      </trkpt>
      <trkpt lat="48.31528" lon="-1.63567">
        <ele>91.567</ele>
        <time>2019-11-11T12:17:35Z</time>
      </trkpt>
      <trkpt lat="48.31664" lon="-1.63582">
        <ele>89.591</ele>
        <time>2019-11-11T12:18:05Z</time>
      </trkpt>
      <trkpt lat="48.31772" lon="-1.63605">
        <ele>89.082</ele>
        <time>2019-11-11T12:18:35Z</time>
      </trkpt>
      <trkpt lat="48.31872" lon="-1.63634">
        <ele>93.212</ele>
        <time>2019-11-11T12:19:05Z</time>
      </trkpt>
      <trkpt lat="48.31982" lon="-1.63642">
        <ele>91.932</ele>
        <time>2019-11-11T12:19:38Z</time>
      </trkpt>
      <trkpt lat="48.3209" lon="-1.63644">
        <ele>93.094</ele>
        <time>2019-11-11T12:20:08Z</time>
      </trkpt>
      <trkpt lat="48.3219" lon="-1.63643">
        <ele>98.368</ele>
        <time>2019-11-11T12:20:38Z</time>
      </trkpt>
      <trkpt lat="48.32309" lon="-1.63649">
        <ele>96.007</ele>
        <time>2019-11-11T12:21:11Z</time>
      </trkpt>
      <trkpt lat="48.32412" lon="-1.63666">
        <ele>95.769</ele>
        <time>2019-11-11T12:21:41Z</time>
      </trkpt>
      <trkpt lat="48.32485" lon="-1.63772">
        <ele>98.073</ele>
        <time>2019-11-11T12:22:11Z</time>
      </trkpt>
      <trkpt lat="48.32564" lon="-1.63856">
        <ele>101.505</ele>
        <time>2019-11-11T12:22:41Z</time>
      </trkpt>
      <trkpt lat="48.32677" lon="-1.63907">
        <ele>104.849</ele>
        <time>2019-11-11T12:23:14Z</time>
      </trkpt>
      <trkpt lat="48.32776" lon="-1.6394">
        <ele>102.636</ele>
        <time>2019-11-11T12:23:44Z</time>
      </trkpt>
      <trkpt lat="48.32829" lon="-1.64053">
        <ele>105.252</ele>
        <time>2019-11-11T12:24:14Z</time>
      </trkpt>
      <trkpt lat="48.32976" lon="-1.64096">
        <ele>107.268</ele>
        <time>2019-11-11T12:24:47Z</time>
      </trkpt>
      <trkpt lat="48.33092" lon="-1.63883">
        <ele>99.746</ele>
        <time>2019-11-11T12:25:17Z</time>
      </trkpt>
      <trkpt lat="48.33234" lon="-1.63758">
        <ele>95.384</ele>
        <time>2019-11-11T12:25:47Z</time>
      </trkpt>
      <trkpt lat="48.33426" lon="-1.63617">
        <ele>93.337</ele>
        <time>2019-11-11T12:26:17Z</time>
      </trkpt>
      <trkpt lat="48.33646" lon="-1.63446">
        <ele>85.657</ele>
        <time>2019-11-11T12:26:50Z</time>
      </trkpt>
      <trkpt lat="48.33769" lon="-1.63348">
        <ele>81.101</ele>
        <time>2019-11-11T12:27:20Z</time>
      </trkpt>
      <trkpt lat="48.33913" lon="-1.63282">
        <ele>79.823</ele>
        <time>2019-11-11T12:27:50Z</time>
      </trkpt>
      <trkpt lat="48.34103" lon="-1.63248">
        <ele>78.137</ele>
        <time>2019-11-11T12:28:23Z</time>
      </trkpt>
      <trkpt lat="48.3427" lon="-1.63231">
        <ele>74.461</ele>
        <time>2019-11-11T12:28:53Z</time>
      </trkpt>
      <trkpt lat="48.34429" lon="-1.63227">
        <ele>75.682</ele>
        <time>2019-11-11T12:29:23Z</time>
      </trkpt>
      <trkpt lat="48.34609" lon="-1.63221">
        <ele>72.751</ele>
        <time>2019-11-11T12:29:56Z</time>
      </trkpt>
      <trkpt lat="48.34723" lon="-1.63195">
        <ele>73.037</ele>
        <time>2019-11-11T12:30:26Z</time>
      </trkpt>
      <trkpt lat="48.34815" lon="-1.63148">
        <ele>85.145</ele>
        <time>2019-11-11T12:30:56Z</time>
      </trkpt>
      <trkpt lat="48.34899" lon="-1.63111">
        <ele>91.677</ele>
        <time>2019-11-11T12:31:26Z</time>
      </trkpt>
      <trkpt lat="48.34978" lon="-1.6307">
        <ele>99.026</ele>
        <time>2019-11-11T12:31:59Z</time>
      </trkpt>
      <trkpt lat="48.35068" lon="-1.63015">
        <ele>105.235</ele>
        <time>2019-11-11T12:32:29Z</time>
      </trkpt>
      <trkpt lat="48.35161" lon="-1.62963">
        <ele>106.018</ele>
        <time>2019-11-11T12:32:59Z</time>
      </trkpt>
      <trkpt lat="48.35286" lon="-1.62902">
        <ele>108.951</ele>
        <time>2019-11-11T12:33:32Z</time>
      </trkpt>
      <trkpt lat="48.3542" lon="-1.62833">
        <ele>109.944</ele>
        <time>2019-11-11T12:34:02Z</time>
      </trkpt>
      <trkpt lat="48.35538" lon="-1.62763">
        <ele>90.878</ele>
        <time>2019-11-11T12:34:32Z</time>
      </trkpt>
      <trkpt lat="48.35632" lon="-1.62695">
        <ele>89.534</ele>
        <time>2019-11-11T12:35:02Z</time>
      </trkpt>
      <trkpt lat="48.35768" lon="-1.62604">
        <ele>86.259</ele>
        <time>2019-11-11T12:35:35Z</time>
      </trkpt>
      <trkpt lat="48.35896" lon="-1.62512">
        <ele>85.556</ele>
        <time>2019-11-11T12:36:05Z</time>
      </trkpt>
      <trkpt lat="48.36035" lon="-1.62407">
        <ele>81.309</ele>
        <time>2019-11-11T12:36:35Z</time>
      </trkpt>
      <trkpt lat="48.36177" lon="-1.62301">
        <ele>78.219</ele>
        <time>2019-11-11T12:37:08Z</time>
      </trkpt>
      <trkpt lat="48.36301" lon="-1.62208">
        <ele>78.3</ele>
        <time>2019-11-11T12:37:38Z</time>
      </trkpt>
      <trkpt lat="48.36415" lon="-1.62103">
        <ele>78.337</ele>
        <time>2019-11-11T12:38:08Z</time>
      </trkpt>
      <trkpt lat="48.36524" lon="-1.6196">
        <ele>78.091</ele>
        <time>2019-11-11T12:38:38Z</time>
      </trkpt>
      <trkpt lat="48.36623" lon="-1.61831">
        <ele>80.131</ele>
        <time>2019-11-11T12:39:11Z</time>
      </trkpt>
      <trkpt lat="48.36722" lon="-1.61774">
        <ele>87.164</ele>
        <time>2019-11-11T12:39:41Z</time>
      </trkpt>
      <trkpt lat="48.36858" lon="-1.61696">
        <ele>84.312</ele>
        <time>2019-11-11T12:40:11Z</time>
      </trkpt>
      <trkpt lat="48.37016" lon="-1.61514">
        <ele>76.584</ele>
        <time>2019-11-11T12:40:44Z</time>
      </trkpt>
      <trkpt lat="48.37169" lon="-1.6134">
        <ele>72.225</ele>
        <time>2019-11-11T12:41:14Z</time>
      </trkpt>
      <trkpt lat="48.37338" lon="-1.61212">
        <ele>67.249</ele>
        <time>2019-11-11T12:41:44Z</time>
      </trkpt>
      <trkpt lat="48.37456" lon="-1.60935">
        <ele>63.029</ele>
        <time>2019-11-11T12:42:17Z</time>
      </trkpt>
      <trkpt lat="48.37549" lon="-1.60798">
        <ele>61.741</ele>
        <time>2019-11-11T12:42:47Z</time>
      </trkpt>
      <trkpt lat="48.37644" lon="-1.60737">
        <ele>63.661</ele>
        <time>2019-11-11T12:43:17Z</time>
      </trkpt>
      <trkpt lat="48.3776" lon="-1.6073">
        <ele>67.359</ele>
        <time>2019-11-11T12:43:47Z</time>
      </trkpt>
      <trkpt lat="48.37915" lon="-1.60679">
        <ele>62.404</ele>
        <time>2019-11-11T12:44:20Z</time>
      </trkpt>
      <trkpt lat="48.38055" lon="-1.60625">
        <ele>65.595</ele>
        <time>2019-11-11T12:44:50Z</time>
      </trkpt>
      <trkpt lat="48.3818" lon="-1.60558">
        <ele>64.366</ele>
        <time>2019-11-11T12:45:20Z</time>
      </trkpt>
      <trkpt lat="48.38314" lon="-1.60509">
        <ele>60.529</ele>
        <time>2019-11-11T12:45:53Z</time>
      </trkpt>
      <trkpt lat="48.38359" lon="-1.60427">
        <ele>56.758</ele>
        <time>2019-11-11T12:46:23Z</time>
      </trkpt>
      <trkpt lat="48.38482" lon="-1.60439">
        <ele>59.911</ele>
        <time>2019-11-11T12:46:53Z</time>
      </trkpt>
      <trkpt lat="48.3856" lon="-1.60402">
        <ele>51.011</ele>
        <time>2019-11-11T12:47:23Z</time>
      </trkpt>
      <trkpt lat="48.38619" lon="-1.60466">
        <ele>53.608</ele>
        <time>2019-11-11T12:47:56Z</time>
      </trkpt>
      <trkpt lat="48.38722" lon="-1.60569">
        <ele>56.019</ele>
        <time>2019-11-11T12:48:26Z</time>
      </trkpt>
      <trkpt lat="48.38893" lon="-1.6047">
        <ele>41.907</ele>
        <time>2019-11-11T12:48:56Z</time>
      </trkpt>
      <trkpt lat="48.391" lon="-1.60491">
        <ele>39.371</ele>
        <time>2019-11-11T12:49:29Z</time>
      </trkpt>
      <trkpt lat="48.39215" lon="-1.60529">
        <ele>38.165</ele>
        <time>2019-11-11T12:49:59Z</time>
      </trkpt>
      <trkpt lat="48.3929" lon="-1.60537">
        <ele>41.337</ele>
        <time>2019-11-11T12:50:29Z</time>
      </trkpt>
      <trkpt lat="48.39356" lon="-1.60543">
        <ele>45.914</ele>
        <time>2019-11-11T12:50:59Z</time>
      </trkpt>
      <trkpt lat="48.39428" lon="-1.60548">
        <ele>48.211</ele>
        <time>2019-11-11T12:51:32Z</time>
      </trkpt>
      <trkpt lat="48.39506" lon="-1.60554">
        <ele>49.6</ele>
        <time>2019-11-11T12:52:02Z</time>
      </trkpt>
      <trkpt lat="48.396" lon="-1.60561">
        <ele>51.19</ele>
        <time>2019-11-11T12:52:32Z</time>
      </trkpt>
      <trkpt lat="48.39725" lon="-1.60532">
        <ele>48.596</ele>
        <time>2019-11-11T12:53:05Z</time>
      </trkpt>
      <trkpt lat="48.39847" lon="-1.60406">
        <ele>45.1</ele>
        <time>2019-11-11T12:53:35Z</time>
      </trkpt>
      <trkpt lat="48.3995" lon="-1.60233">
        <ele>46.263</ele>
        <time>2019-11-11T12:54:05Z</time>
      </trkpt>
      <trkpt lat="48.40024" lon="-1.60143">
        <ele>51.24</ele>
        <time>2019-11-11T12:54:38Z</time>
      </trkpt>
      <trkpt lat="48.40078" lon="-1.60077">
        <ele>56.077</ele>
        <time>2019-11-11T12:55:08Z</time>
      </trkpt>
      <trkpt lat="48.40146" lon="-1.59993">
        <ele>57.146</ele>
        <time>2019-11-11T12:55:38Z</time>
      </trkpt>
      <trkpt lat="48.40242" lon="-1.59888">
        <ele>54.634</ele>
        <time>2019-11-11T12:56:08Z</time>
      </trkpt>
      <trkpt lat="48.40412" lon="-1.59761">
        <ele>50.596</ele>
        <time>2019-11-11T12:56:41Z</time>
      </trkpt>
      <trkpt lat="48.40488" lon="-1.59481">
        <ele>46.67</ele>
        <time>2019-11-11T12:57:11Z</time>
      </trkpt>
      <trkpt lat="48.40605" lon="-1.59204">
        <ele>42.26</ele>
        <time>2019-11-11T12:57:41Z</time>
      </trkpt>
      <trkpt lat="48.40767" lon="-1.58904">
        <ele>33.13</ele>
        <time>2019-11-11T12:58:14.001Z</time>
      </trkpt>
      <trkpt lat="48.40924" lon="-1.58611">
        <ele>22.338</ele>
        <time>2019-11-11T12:58:44.001Z</time>
      </trkpt>
      <trkpt lat="48.41046" lon="-1.58443">
        <ele>23.036</ele>
        <time>2019-11-11T12:59:14.001Z</time>
      </trkpt>
      <trkpt lat="48.41102" lon="-1.58384">
        <ele>36.985</ele>
        <time>2019-11-11T12:59:44.001Z</time>
      </trkpt>
      <trkpt lat="48.41153" lon="-1.58311">
        <ele>39.864</ele>
        <time>2019-11-11T13:00:17.001Z</time>
      </trkpt>
      <trkpt lat="48.412" lon="-1.58252">
        <ele>43.149</ele>
        <time>2019-11-11T13:00:47.001Z</time>
      </trkpt>
      <trkpt lat="48.41271" lon="-1.58237">
        <ele>47.011</ele>
        <time>2019-11-11T13:01:17.001Z</time>
      </trkpt>
      <trkpt lat="48.41387" lon="-1.58234">
        <ele>43.892</ele>
        <time>2019-11-11T13:01:50.001Z</time>
      </trkpt>
      <trkpt lat="48.41489" lon="-1.58231">
        <ele>42.423</ele>
        <time>2019-11-11T13:02:20.001Z</time>
      </trkpt>
      <trkpt lat="48.41577" lon="-1.58185">
        <ele>44.801</ele>
        <time>2019-11-11T13:02:50.001Z</time>
      </trkpt>
      <trkpt lat="48.4164" lon="-1.58085">
        <ele>46.463</ele>
        <time>2019-11-11T13:03:20.001Z</time>
      </trkpt>
      <trkpt lat="48.41734" lon="-1.58016">
        <ele>50.006</ele>
        <time>2019-11-11T13:03:53.001Z</time>
      </trkpt>
      <trkpt lat="48.4182" lon="-1.57993">
        <ele>48.646</ele>
        <time>2019-11-11T13:04:23.001Z</time>
      </trkpt>
      <trkpt lat="48.41889" lon="-1.57974">
        <ele>52.763</ele>
        <time>2019-11-11T13:04:53.001Z</time>
      </trkpt>
      <trkpt lat="48.41948" lon="-1.57924">
        <ele>59.913</ele>
        <time>2019-11-11T13:05:26.001Z</time>
      </trkpt>
      <trkpt lat="48.42003" lon="-1.57869">
        <ele>73.077</ele>
        <time>2019-11-11T13:05:59.001Z</time>
      </trkpt>
      <trkpt lat="48.42052" lon="-1.57808">
        <ele>81.008</ele>
        <time>2019-11-11T13:06:29.001Z</time>
      </trkpt>
      <trkpt lat="48.42091" lon="-1.57736">
        <ele>76.954</ele>
        <time>2019-11-11T13:07:02Z</time>
      </trkpt>
      <trkpt lat="48.42134" lon="-1.57686">
        <ele>76.172</ele>
        <time>2019-11-11T13:07:32.001Z</time>
      </trkpt>
      <trkpt lat="48.42171" lon="-1.57622">
        <ele>79.511</ele>
        <time>2019-11-11T13:08:02Z</time>
      </trkpt>
      <trkpt lat="48.42186" lon="-1.57443">
        <ele>83.227</ele>
        <time>2019-11-11T13:08:32.001Z</time>
      </trkpt>
      <trkpt lat="48.42235" lon="-1.57363">
        <ele>84.757</ele>
        <time>2019-11-11T13:09:05.001Z</time>
      </trkpt>
      <trkpt lat="48.42276" lon="-1.57291">
        <ele>85.162</ele>
        <time>2019-11-11T13:09:35.001Z</time>
      </trkpt>
      <trkpt lat="48.42321" lon="-1.57218">
        <ele>87.226</ele>
        <time>2019-11-11T13:10:05.001Z</time>
      </trkpt>
      <trkpt lat="48.42375" lon="-1.57159">
        <ele>89.716</ele>
        <time>2019-11-11T13:10:38.001Z</time>
      </trkpt>
      <trkpt lat="48.42433" lon="-1.57148">
        <ele>91.531</ele>
        <time>2019-11-11T13:11:08.001Z</time>
      </trkpt>
      <trkpt lat="48.425" lon="-1.57156">
        <ele>98.279</ele>
        <time>2019-11-11T13:11:38.001Z</time>
      </trkpt>
      <trkpt lat="48.42566" lon="-1.57167">
        <ele>104.632</ele>
        <time>2019-11-11T13:12:08.001Z</time>
      </trkpt>
      <trkpt lat="48.42644" lon="-1.57178">
        <ele>108.49</ele>
        <time>2019-11-11T13:12:41.001Z</time>
      </trkpt>
      <trkpt lat="48.42742" lon="-1.57214">
        <ele>111.675</ele>
        <time>2019-11-11T13:13:11.001Z</time>
      </trkpt>
      <trkpt lat="48.42835" lon="-1.57487">
        <ele>98.866</ele>
        <time>2019-11-11T13:13:41.001Z</time>
      </trkpt>
      <trkpt lat="48.4293" lon="-1.57311">
        <ele>79.786</ele>
        <time>2019-11-11T13:14:14.001Z</time>
      </trkpt>
      <trkpt lat="48.42959" lon="-1.5707">
        <ele>75.06</ele>
        <time>2019-11-11T13:14:44.001Z</time>
      </trkpt>
      <trkpt lat="48.4301" lon="-1.57008">
        <ele>78.897</ele>
        <time>2019-11-11T13:15:14.001Z</time>
      </trkpt>
      <trkpt lat="48.43051" lon="-1.56957">
        <ele>85.179</ele>
        <time>2019-11-11T13:15:44.001Z</time>
      </trkpt>
      <trkpt lat="48.43111" lon="-1.56857">
        <ele>88.786</ele>
        <time>2019-11-11T13:16:17.001Z</time>
      </trkpt>
      <trkpt lat="48.43171" lon="-1.5673">
        <ele>88.969</ele>
        <time>2019-11-11T13:16:47.001Z</time>
      </trkpt>
      <trkpt lat="48.43225" lon="-1.56617">
        <ele>91.533</ele>
        <time>2019-11-11T13:17:17.001Z</time>
      </trkpt>
      <trkpt lat="48.4328" lon="-1.56508">
        <ele>93.652</ele>
        <time>2019-11-11T13:17:50.001Z</time>
      </trkpt>
      <trkpt lat="48.43359" lon="-1.56392">
        <ele>93.395</ele>
        <time>2019-11-11T13:18:20.001Z</time>
      </trkpt>
      <trkpt lat="48.4346" lon="-1.56268">
        <ele>90.071</ele>
        <time>2019-11-11T13:18:50.001Z</time>
      </trkpt>
      <trkpt lat="48.43606" lon="-1.56122">
        <ele>90.34</ele>
        <time>2019-11-11T13:19:23.001Z</time>
      </trkpt>
      <trkpt lat="48.43718" lon="-1.56014">
        <ele>91.902</ele>
        <time>2019-11-11T13:19:53.001Z</time>
      </trkpt>
      <trkpt lat="48.43828" lon="-1.55939">
        <ele>92.123</ele>
        <time>2019-11-11T13:20:23.001Z</time>
      </trkpt>
      <trkpt lat="48.4395" lon="-1.55923">
        <ele>93.327</ele>
        <time>2019-11-11T13:20:53.001Z</time>
      </trkpt>
      <trkpt lat="48.44056" lon="-1.55911">
        <ele>94.636</ele>
        <time>2019-11-11T13:21:26.001Z</time>
      </trkpt>
      <trkpt lat="48.44143" lon="-1.55896">
        <ele>94.661</ele>
        <time>2019-11-11T13:21:56.001Z</time>
      </trkpt>
      <trkpt lat="48.44292" lon="-1.55847">
        <ele>92.059</ele>
        <time>2019-11-11T13:22:26.001Z</time>
      </trkpt>
      <trkpt lat="48.44465" lon="-1.55968">
        <ele>87.734</ele>
        <time>2019-11-11T13:22:59.001Z</time>
      </trkpt>
      <trkpt lat="48.44613" lon="-1.55849">
        <ele>80.417</ele>
        <time>2019-11-11T13:23:29.001Z</time>
      </trkpt>
      <trkpt lat="48.44687" lon="-1.55797">
        <ele>82.123</ele>
        <time>2019-11-11T13:23:59.001Z</time>
      </trkpt>
      <trkpt lat="48.44743" lon="-1.55785">
        <ele>91.382</ele>
        <time>2019-11-11T13:24:29.001Z</time>
      </trkpt>
      <trkpt lat="48.44807" lon="-1.5577">
        <ele>95.358</ele>
        <time>2019-11-11T13:25:02Z</time>
      </trkpt>
      <trkpt lat="48.44868" lon="-1.55798">
        <ele>100.127</ele>
        <time>2019-11-11T13:25:32.001Z</time>
      </trkpt>
      <trkpt lat="48.44934" lon="-1.5583">
        <ele>100.021</ele>
        <time>2019-11-11T13:26:02Z</time>
      </trkpt>
      <trkpt lat="48.45015" lon="-1.55827">
        <ele>105.38</ele>
        <time>2019-11-11T13:26:35.001Z</time>
      </trkpt>
      <trkpt lat="48.45101" lon="-1.55828">
        <ele>105.836</ele>
        <time>2019-11-11T13:27:05.001Z</time>
      </trkpt>
      <trkpt lat="48.45159" lon="-1.55827">
        <ele>108.289</ele>
        <time>2019-11-11T13:27:35.001Z</time>
      </trkpt>
      <trkpt lat="48.45256" lon="-1.55824">
        <ele>109.204</ele>
        <time>2019-11-11T13:28:05.001Z</time>
      </trkpt>
      <trkpt lat="48.45383" lon="-1.55858">
        <ele>107.154</ele>
        <time>2019-11-11T13:28:38.001Z</time>
      </trkpt>
      <trkpt lat="48.45499" lon="-1.55834">
        <ele>106.381</ele>
        <time>2019-11-11T13:29:08.001Z</time>
      </trkpt>
      <trkpt lat="48.45626" lon="-1.55812">
        <ele>103.905</ele>
        <time>2019-11-11T13:29:38.001Z</time>
      </trkpt>
      <trkpt lat="48.45745" lon="-1.55794">
        <ele>106.03</ele>
        <time>2019-11-11T13:30:11.001Z</time>
      </trkpt>
      <trkpt lat="48.4586" lon="-1.55774">
        <ele>102.889</ele>
        <time>2019-11-11T13:30:41.001Z</time>
      </trkpt>
      <trkpt lat="48.45989" lon="-1.55757">
        <ele>98.87</ele>
        <time>2019-11-11T13:31:11.001Z</time>
      </trkpt>
      <trkpt lat="48.46117" lon="-1.55735">
        <ele>101.31</ele>
        <time>2019-11-11T13:31:44.001Z</time>
      </trkpt>
      <trkpt lat="48.46219" lon="-1.55718">
        <ele>101.138</ele>
        <time>2019-11-11T13:32:14.001Z</time>
      </trkpt>
      <trkpt lat="48.46311" lon="-1.55702">
        <ele>105.905</ele>
        <time>2019-11-11T13:32:44.001Z</time>
      </trkpt>
      <trkpt lat="48.46443" lon="-1.55666">
        <ele>110.426</ele>
        <time>2019-11-11T13:33:14.001Z</time>
      </trkpt>
      <trkpt lat="48.46595" lon="-1.5563">
        <ele>103.61</ele>
        <time>2019-11-11T13:33:47.001Z</time>
      </trkpt>
      <trkpt lat="48.46725" lon="-1.55599">
        <ele>100.36</ele>
        <time>2019-11-11T13:34:17.001Z</time>
      </trkpt>
      <trkpt lat="48.46825" lon="-1.55574">
        <ele>100.342</ele>
        <time>2019-11-11T13:34:47.001Z</time>
      </trkpt>
      <trkpt lat="48.46914" lon="-1.55552">
        <ele>107.466</ele>
        <time>2019-11-11T13:35:20.001Z</time>
      </trkpt>
      <trkpt lat="48.47102" lon="-1.55506">
        <ele>102.158</ele>
        <time>2019-11-11T13:35:50.001Z</time>
      </trkpt>
      <trkpt lat="48.47298" lon="-1.55452">
        <ele>98.116</ele>
        <time>2019-11-11T13:36:20.001Z</time>
      </trkpt>
      <trkpt lat="48.4741" lon="-1.55427">
        <ele>95.952</ele>
        <time>2019-11-11T13:36:50.001Z</time>
      </trkpt>
      <trkpt lat="48.47488" lon="-1.55416">
        <ele>99.401</ele>
        <time>2019-11-11T13:37:23.001Z</time>
      </trkpt>
      <trkpt lat="48.47558" lon="-1.55392">
        <ele>105.134</ele>
        <time>2019-11-11T13:37:53.001Z</time>
      </trkpt>
      <trkpt lat="48.47632" lon="-1.55375">
        <ele>108.008</ele>
        <time>2019-11-11T13:38:23.001Z</time>
      </trkpt>
      <trkpt lat="48.47703" lon="-1.55357">
        <ele>109.103</ele>
        <time>2019-11-11T13:38:56.001Z</time>
      </trkpt>
      <trkpt lat="48.47788" lon="-1.55337">
        <ele>113.449</ele>
        <time>2019-11-11T13:39:26.001Z</time>
      </trkpt>
      <trkpt lat="48.4793" lon="-1.553">
        <ele>116.15</ele>
        <time>2019-11-11T13:39:56.001Z</time>
      </trkpt>
      <trkpt lat="48.47984" lon="-1.55284">
        <ele>116.443</ele>
        <time>2019-11-11T13:41:26.001Z</time>
      </trkpt>
      <trkpt lat="48.4817" lon="-1.55239">
        <ele>115.14</ele>
        <time>2019-11-11T13:41:59.001Z</time>
      </trkpt>
      <trkpt lat="48.48319" lon="-1.55205">
        <ele>117.976</ele>
        <time>2019-11-11T13:42:29.001Z</time>
      </trkpt>
      <trkpt lat="48.48459" lon="-1.55166">
        <ele>122.047</ele>
        <time>2019-11-11T13:42:59.001Z</time>
      </trkpt>
      <trkpt lat="48.48537" lon="-1.55069">
        <ele>112.62</ele>
        <time>2019-11-11T13:43:32.001Z</time>
      </trkpt>
      <trkpt lat="48.48489" lon="-1.54828">
        <ele>100.77</ele>
        <time>2019-11-11T13:44:02Z</time>
      </trkpt>
      <trkpt lat="48.48491" lon="-1.54578">
        <ele>97.992</ele>
        <time>2019-11-11T13:44:32.001Z</time>
      </trkpt>
      <trkpt lat="48.48617" lon="-1.54503">
        <ele>98.655</ele>
        <time>2019-11-11T13:45:05.001Z</time>
      </trkpt>
      <trkpt lat="48.48729" lon="-1.54448">
        <ele>101.789</ele>
        <time>2019-11-11T13:45:35.001Z</time>
      </trkpt>
      <trkpt lat="48.48916" lon="-1.54386">
        <ele>93.884</ele>
        <time>2019-11-11T13:46:05.001Z</time>
      </trkpt>
      <trkpt lat="48.49073" lon="-1.54256">
        <ele>88.755</ele>
        <time>2019-11-11T13:46:35.001Z</time>
      </trkpt>
      <trkpt lat="48.49254" lon="-1.54214">
        <ele>85.568</ele>
        <time>2019-11-11T13:47:08.001Z</time>
      </trkpt>
      <trkpt lat="48.49441" lon="-1.54222">
        <ele>78.011</ele>
        <time>2019-11-11T13:47:38.001Z</time>
      </trkpt>
      <trkpt lat="48.49543" lon="-1.54284">
        <ele>85.327</ele>
        <time>2019-11-11T13:48:08.001Z</time>
      </trkpt>
      <trkpt lat="48.49622" lon="-1.54335">
        <ele>90.202</ele>
        <time>2019-11-11T13:48:41.001Z</time>
      </trkpt>
      <trkpt lat="48.49684" lon="-1.54375">
        <ele>91.559</ele>
        <time>2019-11-11T13:49:11.001Z</time>
      </trkpt>
      <trkpt lat="48.49752" lon="-1.5441">
        <ele>90.235</ele>
        <time>2019-11-11T13:49:41.001Z</time>
      </trkpt>
      <trkpt lat="48.49827" lon="-1.54409">
        <ele>90.646</ele>
        <time>2019-11-11T13:50:11.001Z</time>
      </trkpt>
      <trkpt lat="48.49944" lon="-1.54424">
        <ele>93.45</ele>
        <time>2019-11-11T13:50:44.001Z</time>
      </trkpt>
      <trkpt lat="48.50062" lon="-1.54467">
        <ele>92.29</ele>
        <time>2019-11-11T13:51:14.001Z</time>
      </trkpt>
      <trkpt lat="48.50236" lon="-1.5449">
        <ele>83.902</ele>
        <time>2019-11-11T13:51:44.001Z</time>
      </trkpt>
      <trkpt lat="48.50624" lon="-1.54421">
        <ele>42.342</ele>
        <time>2019-11-11T13:52:17.001Z</time>
      </trkpt>
      <trkpt lat="48.50911" lon="-1.54464">
        <ele>28.323</ele>
        <time>2019-11-11T13:52:47.001Z</time>
      </trkpt>
      <trkpt lat="48.51056" lon="-1.54531">
        <ele>25.051</ele>
        <time>2019-11-11T13:53:17.001Z</time>
      </trkpt>
      <trkpt lat="48.51168" lon="-1.54404">
        <ele>25.977</ele>
        <time>2019-11-11T13:53:47.001Z</time>
      </trkpt>
      <trkpt lat="48.51263" lon="-1.54137">
        <ele>21.527</ele>
        <time>2019-11-11T13:54:20.001Z</time>
      </trkpt>
      <trkpt lat="48.51389" lon="-1.54063">
        <ele>24.566</ele>
        <time>2019-11-11T13:54:50.001Z</time>
      </trkpt>
      <trkpt lat="48.51522" lon="-1.54028">
        <ele>23.747</ele>
        <time>2019-11-11T13:55:20.001Z</time>
      </trkpt>
      <trkpt lat="48.51686" lon="-1.53986">
        <ele>17.825</ele>
        <time>2019-11-11T13:55:53.001Z</time>
      </trkpt>
      <trkpt lat="48.51827" lon="-1.53951">
        <ele>16.421</ele>
        <time>2019-11-11T13:56:23.001Z</time>
      </trkpt>
      <trkpt lat="48.51979" lon="-1.53922">
        <ele>22.034</ele>
        <time>2019-11-11T13:56:53.001Z</time>
      </trkpt>
      <trkpt lat="48.52137" lon="-1.53839">
        <ele>23.598</ele>
        <time>2019-11-11T13:57:26.001Z</time>
      </trkpt>
      <trkpt lat="48.523" lon="-1.5373">
        <ele>16.657</ele>
        <time>2019-11-11T13:57:56.001Z</time>
      </trkpt>
      <trkpt lat="48.52391" lon="-1.53607">
        <ele>14.643</ele>
        <time>2019-11-11T13:58:26.001Z</time>
      </trkpt>
      <trkpt lat="48.52494" lon="-1.53471">
        <ele>15.838</ele>
        <time>2019-11-11T13:58:56.001Z</time>
      </trkpt>
      <trkpt lat="48.52649" lon="-1.53319">
        <ele>13.951</ele>
        <time>2019-11-11T13:59:29.001Z</time>
      </trkpt>
      <trkpt lat="48.52743" lon="-1.53164">
        <ele>16.748</ele>
        <time>2019-11-11T13:59:59.001Z</time>
      </trkpt>
      <trkpt lat="48.52836" lon="-1.52994">
        <ele>17.769</ele>
        <time>2019-11-11T14:00:29.001Z</time>
      </trkpt>
      <trkpt lat="48.53024" lon="-1.52905">
        <ele>13.142</ele>
        <time>2019-11-11T14:01:02Z</time>
      </trkpt>
      <trkpt lat="48.53017" lon="-1.52674">
        <ele>10.162</ele>
        <time>2019-11-11T14:01:32.001Z</time>
      </trkpt>
      <trkpt lat="48.52996" lon="-1.5251">
        <ele>12.901</ele>
        <time>2019-11-11T14:02:02Z</time>
      </trkpt>
      <trkpt lat="48.53077" lon="-1.52405">
        <ele>13.368</ele>
        <time>2019-11-11T14:02:32.001Z</time>
      </trkpt>
      <trkpt lat="48.53177" lon="-1.52327">
        <ele>17.395</ele>
        <time>2019-11-11T14:03:05.001Z</time>
      </trkpt>
      <trkpt lat="48.53281" lon="-1.5227">
        <ele>19.803</ele>
        <time>2019-11-11T14:03:35.001Z</time>
      </trkpt>
      <trkpt lat="48.53443" lon="-1.52184">
        <ele>17.938</ele>
        <time>2019-11-11T14:04:05.001Z</time>
      </trkpt>
      <trkpt lat="48.53588" lon="-1.52028">
        <ele>11.223</ele>
        <time>2019-11-11T14:04:38.001Z</time>
      </trkpt>
      <trkpt lat="48.53646" lon="-1.51767">
        <ele>6.744</ele>
        <time>2019-11-11T14:05:08.001Z</time>
      </trkpt>
      <trkpt lat="48.53757" lon="-1.51701">
        <ele>9.03</ele>
        <time>2019-11-11T14:05:38.001Z</time>
      </trkpt>
      <trkpt lat="48.53853" lon="-1.51539">
        <ele>8.116</ele>
        <time>2019-11-11T14:06:08.001Z</time>
      </trkpt>
      <trkpt lat="48.53969" lon="-1.51517">
        <ele>5.315</ele>
        <time>2019-11-11T14:06:41.001Z</time>
      </trkpt>
      <trkpt lat="48.54078" lon="-1.515">
        <ele>8.391</ele>
        <time>2019-11-11T14:07:11.001Z</time>
      </trkpt>
      <trkpt lat="48.5418" lon="-1.51434">
        <ele>9.544</ele>
        <time>2019-11-11T14:07:41.001Z</time>
      </trkpt>
      <trkpt lat="48.54288" lon="-1.51315">
        <ele>6.569</ele>
        <time>2019-11-11T14:08:14.001Z</time>
      </trkpt>
      <trkpt lat="48.54399" lon="-1.51318">
        <ele>9.778</ele>
        <time>2019-11-11T14:08:44.001Z</time>
      </trkpt>
      <trkpt lat="48.54495" lon="-1.5135">
        <ele>5.195</ele>
        <time>2019-11-11T14:09:14.001Z</time>
      </trkpt>
      <trkpt lat="48.5458" lon="-1.51482">
        <ele>10.052</ele>
        <time>2019-11-11T14:09:47.001Z</time>
      </trkpt>
      <trkpt lat="48.54603" lon="-1.51671">
        <ele>6.971</ele>
        <time>2019-11-11T14:10:17.001Z</time>
      </trkpt>
      <trkpt lat="48.54652" lon="-1.51798">
        <ele>5.909</ele>
        <time>2019-11-11T14:10:47.001Z</time>
      </trkpt>
      <trkpt lat="48.54772" lon="-1.5175">
        <ele>8.107</ele>
        <time>2019-11-11T14:11:17.001Z</time>
      </trkpt>
      <trkpt lat="48.54891" lon="-1.51631">
        <ele>7.685</ele>
        <time>2019-11-11T14:11:50.001Z</time>
      </trkpt>
      <trkpt lat="48.55002" lon="-1.51543">
        <ele>8.066</ele>
        <time>2019-11-11T14:12:20.001Z</time>
      </trkpt>
      <trkpt lat="48.55111" lon="-1.51427">
        <ele>9.716</ele>
        <time>2019-11-11T14:12:50.001Z</time>
      </trkpt>
      <trkpt lat="48.55238" lon="-1.5139">
        <ele>8.535</ele>
        <time>2019-11-11T14:13:23.001Z</time>
      </trkpt>
      <trkpt lat="48.55266" lon="-1.51293">
        <ele>13.174</ele>
        <time>2019-11-11T14:13:53.001Z</time>
      </trkpt>
    </trkseg>
  </trk>
</gpx>